GIA224 WIII-WIEE
Flight info
| Callsign | GIA224 |
|---|---|
| Flight time | N/A |
| Altitude | 36000 |
| Route | RIMTI1F/25R RIMTI W11 TKG W19 LEBEG |
| Aircraft | B738/M-SDE2E3FGHIRWXY/LB1 |
Departure
| Time | N/A |
|---|---|
| Airport | Soekarno-Hatta International Airport (WIII) |
Arrival
| Time | 2026-05-04 13:06 |
|---|---|
| Airport | Minangkabau International Airport (WIEE) |
| Time | Latitude | Longitude | Altitude | Speed | Heading |
|---|---|---|---|---|---|
| 2026-05-04 12:18 | -5.46172 | 105.68293 | 24869 ft | 438 kts | 307° |
| 2026-05-04 12:18 | -5.44391 | 105.65795 | 25180 ft | 440 kts | 307° |
| 2026-05-04 12:19 | -5.42668 | 105.63241 | 25477 ft | 443 kts | 301° |
| 2026-05-04 12:19 | -5.41326 | 105.60485 | 25766 ft | 446 kts | 292° |
| 2026-05-04 12:19 | -5.40224 | 105.57569 | 26075 ft | 447 kts | 291° |
| 2026-05-04 12:19 | -5.39156 | 105.54622 | 26376 ft | 449 kts | 291° |
| 2026-05-04 12:20 | -5.38090 | 105.51670 | 26656 ft | 451 kts | 291° |
| 2026-05-04 12:20 | -5.37004 | 105.48699 | 26931 ft | 453 kts | 291° |
| 2026-05-04 12:20 | -5.35914 | 105.45758 | 27215 ft | 455 kts | 291° |
| 2026-05-04 12:20 | -5.34794 | 105.42761 | 27485 ft | 456 kts | 291° |
| 2026-05-04 12:21 | -5.33672 | 105.39779 | 27744 ft | 458 kts | 292° |
| 2026-05-04 12:21 | -5.32541 | 105.36778 | 28015 ft | 460 kts | 292° |
| 2026-05-04 12:21 | -5.31404 | 105.33759 | 28281 ft | 461 kts | 292° |
| 2026-05-04 12:21 | -5.30280 | 105.30775 | 28538 ft | 463 kts | 292° |
| 2026-05-04 12:22 | -5.29136 | 105.27734 | 28786 ft | 464 kts | 292° |
| 2026-05-04 12:22 | -5.27991 | 105.24691 | 29031 ft | 466 kts | 292° |
| 2026-05-04 12:22 | -5.26840 | 105.21634 | 29265 ft | 468 kts | 292° |
| 2026-05-04 12:22 | -5.25656 | 105.18587 | 29489 ft | 469 kts | 295° |
| 2026-05-04 12:23 | -5.24320 | 105.15636 | 29703 ft | 471 kts | 296° |
| 2026-05-04 12:23 | -5.22889 | 105.12672 | 29918 ft | 472 kts | 297° |
| 2026-05-04 12:23 | -5.21421 | 105.09700 | 30116 ft | 473 kts | 297° |
| 2026-05-04 12:23 | -5.19953 | 105.06729 | 30316 ft | 474 kts | 297° |
| 2026-05-04 12:24 | -5.18495 | 105.03756 | 30517 ft | 475 kts | 297° |
| 2026-05-04 12:24 | -5.17056 | 105.00797 | 30701 ft | 477 kts | 297° |
| 2026-05-04 12:24 | -5.15606 | 104.97794 | 30893 ft | 478 kts | 297° |
| 2026-05-04 12:24 | -5.14158 | 104.94788 | 31081 ft | 478 kts | 296° |
| 2026-05-04 12:25 | -5.12726 | 104.91806 | 31294 ft | 479 kts | 296° |
| 2026-05-04 12:25 | -5.11282 | 104.88800 | 31564 ft | 478 kts | 296° |
| 2026-05-04 12:25 | -5.09840 | 104.85800 | 31862 ft | 476 kts | 296° |
| 2026-05-04 12:25 | -5.08404 | 104.82812 | 32164 ft | 474 kts | 296° |
| 2026-05-04 12:26 | -5.06967 | 104.79827 | 32420 ft | 474 kts | 296° |
| 2026-05-04 12:26 | -5.05530 | 104.76841 | 32681 ft | 473 kts | 296° |
| 2026-05-04 12:26 | -5.04117 | 104.73905 | 32934 ft | 473 kts | 296° |
| 2026-05-04 12:26 | -5.02687 | 104.70935 | 33199 ft | 472 kts | 296° |
| 2026-05-04 12:27 | -5.01253 | 104.67958 | 33468 ft | 471 kts | 296° |
| 2026-05-04 12:27 | -4.99839 | 104.65022 | 33721 ft | 471 kts | 296° |
| 2026-05-04 12:27 | -4.98411 | 104.62056 | 33965 ft | 470 kts | 296° |
| 2026-05-04 12:27 | -4.96985 | 104.59095 | 34203 ft | 470 kts | 296° |
| 2026-05-04 12:28 | -4.95565 | 104.56147 | 34429 ft | 469 kts | 297° |
| 2026-05-04 12:28 | -4.94156 | 104.53222 | 34641 ft | 469 kts | 297° |
| 2026-05-04 12:28 | -4.92734 | 104.50271 | 34869 ft | 468 kts | 297° |
| 2026-05-04 12:28 | -4.91314 | 104.47324 | 35100 ft | 467 kts | 297° |
| 2026-05-04 12:29 | -4.89903 | 104.44419 | 35326 ft | 467 kts | 297° |
| 2026-05-04 12:29 | -4.88462 | 104.41478 | 35546 ft | 466 kts | 297° |
| 2026-05-04 12:29 | -4.87027 | 104.38559 | 35758 ft | 465 kts | 297° |
| 2026-05-04 12:29 | -4.85608 | 104.35674 | 35933 ft | 466 kts | 297° |
| 2026-05-04 12:30 | -4.82724 | 104.29805 | 35937 ft | 468 kts | 297° |
| 2026-05-04 12:30 | -4.79878 | 104.24001 | 35935 ft | 464 kts | 297° |
| 2026-05-04 12:31 | -4.76991 | 104.18115 | 35937 ft | 462 kts | 297° |
| 2026-05-04 12:31 | -4.65808 | 103.95324 | 35946 ft | 458 kts | 297° |
| 2026-05-04 12:32 | -4.48651 | 103.60406 | 36001 ft | 476 kts | 297° |
| 2026-05-04 12:33 | -4.36927 | 103.36569 | 35938 ft | 471 kts | 297° |
| 2026-05-04 12:33 | -4.25517 | 103.13396 | 35922 ft | 454 kts | 297° |
| 2026-05-04 12:34 | -4.14387 | 102.90813 | 35973 ft | 457 kts | 297° |
| 2026-05-04 12:34 | -4.02993 | 102.67712 | 35968 ft | 472 kts | 297° |
| 2026-05-04 12:35 | -3.91259 | 102.43938 | 35889 ft | 472 kts | 297° |
| 2026-05-04 12:35 | -3.85015 | 102.32662 | 35862 ft | 465 kts | 312° |
| 2026-05-04 12:35 | -3.75396 | 102.24246 | 35910 ft | 455 kts | 320° |
| 2026-05-04 12:36 | -3.56612 | 102.07436 | 35942 ft | 456 kts | 319° |
| 2026-05-04 12:36 | -3.37373 | 101.90139 | 35955 ft | 471 kts | 319° |
| 2026-05-04 12:37 | -3.17849 | 101.72602 | 35885 ft | 470 kts | 319° |
| 2026-05-04 12:37 | -2.98692 | 101.55398 | 35829 ft | 457 kts | 319° |
| 2026-05-04 12:38 | -2.79770 | 101.38426 | 35939 ft | 457 kts | 319° |
| 2026-05-04 12:38 | -2.60771 | 101.21384 | 35851 ft | 452 kts | 319° |
| 2026-05-04 12:38 | -2.57338 | 101.18305 | 35832 ft | 437 kts | 319° |
| 2026-05-04 12:39 | -2.55115 | 101.16310 | 35842 ft | 422 kts | 319° |
| 2026-05-04 12:39 | -2.52964 | 101.14381 | 35856 ft | 411 kts | 319° |
| 2026-05-04 12:39 | -2.50831 | 101.12469 | 35417 ft | 419 kts | 319° |
| 2026-05-04 12:39 | -2.48641 | 101.10508 | 34680 ft | 421 kts | 319° |
| 2026-05-04 12:40 | -2.46451 | 101.08546 | 34018 ft | 420 kts | 319° |
| 2026-05-04 12:40 | -2.44281 | 101.06601 | 33279 ft | 420 kts | 319° |
| 2026-05-04 12:40 | -2.42128 | 101.04672 | 32561 ft | 420 kts | 319° |
| 2026-05-04 12:40 | -2.39953 | 101.02722 | 31848 ft | 419 kts | 319° |
| 2026-05-04 12:41 | -2.37779 | 101.00773 | 31143 ft | 419 kts | 319° |
| 2026-05-04 12:41 | -2.35600 | 100.98820 | 30462 ft | 419 kts | 319° |
| 2026-05-04 12:42 | -2.29140 | 100.93031 | 28239 ft | 415 kts | 319° |
| 2026-05-04 12:42 | -2.26997 | 100.91111 | 27496 ft | 413 kts | 319° |
| 2026-05-04 12:42 | -2.24860 | 100.89195 | 26784 ft | 411 kts | 319° |
| 2026-05-04 12:42 | -2.22750 | 100.87304 | 26302 ft | 403 kts | 319° |
| 2026-05-04 12:43 | -2.20685 | 100.85453 | 25863 ft | 395 kts | 319° |
| 2026-05-04 12:43 | -2.18661 | 100.83639 | 25469 ft | 387 kts | 319° |
| 2026-05-04 12:43 | -2.16658 | 100.81845 | 25072 ft | 386 kts | 319° |
| 2026-05-04 12:43 | -2.14662 | 100.80057 | 24676 ft | 385 kts | 319° |
| 2026-05-04 12:44 | -2.12668 | 100.78271 | 24281 ft | 385 kts | 319° |
| 2026-05-04 12:44 | -2.10675 | 100.76487 | 23884 ft | 384 kts | 319° |
| 2026-05-04 12:44 | -2.08689 | 100.74707 | 23490 ft | 384 kts | 319° |
| 2026-05-04 12:44 | -2.06702 | 100.72927 | 23032 ft | 383 kts | 319° |
| 2026-05-04 12:45 | -2.04722 | 100.71154 | 22624 ft | 380 kts | 319° |
| 2026-05-04 12:45 | -2.02758 | 100.69395 | 22229 ft | 378 kts | 319° |
| 2026-05-04 12:45 | -2.00807 | 100.67646 | 21840 ft | 376 kts | 319° |
| 2026-05-04 12:45 | -1.98893 | 100.65932 | 21448 ft | 374 kts | 319° |
| 2026-05-04 12:46 | -1.96961 | 100.64201 | 21078 ft | 371 kts | 319° |
| 2026-05-04 12:46 | -1.95045 | 100.62484 | 20694 ft | 369 kts | 319° |
| 2026-05-04 12:46 | -1.93136 | 100.60774 | 20324 ft | 367 kts | 319° |
| 2026-05-04 12:46 | -1.91213 | 100.59053 | 19944 ft | 366 kts | 319° |
| 2026-05-04 12:47 | -1.89323 | 100.57411 | 19562 ft | 364 kts | 325° |
| 2026-05-04 12:47 | -1.87086 | 100.56295 | 19184 ft | 359 kts | 344° |
| 2026-05-04 12:47 | -1.84691 | 100.55618 | 18802 ft | 358 kts | 347° |
| 2026-05-04 12:47 | -1.82285 | 100.55004 | 18433 ft | 356 kts | 347° |
| 2026-05-04 12:48 | -1.79880 | 100.54403 | 18030 ft | 356 kts | 347° |
| 2026-05-04 12:48 | -1.77486 | 100.53801 | 17628 ft | 354 kts | 347° |
| 2026-05-04 12:48 | -1.75106 | 100.53193 | 17237 ft | 352 kts | 347° |
| 2026-05-04 12:48 | -1.72741 | 100.52582 | 16871 ft | 349 kts | 347° |
| 2026-05-04 12:49 | -1.70398 | 100.51971 | 16505 ft | 347 kts | 346° |
| 2026-05-04 12:49 | -1.68069 | 100.51361 | 16143 ft | 345 kts | 346° |
| 2026-05-04 12:49 | -1.65757 | 100.50753 | 15785 ft | 343 kts | 346° |
| 2026-05-04 12:49 | -1.63457 | 100.50147 | 15428 ft | 341 kts | 346° |
| 2026-05-04 12:50 | -1.61167 | 100.49544 | 15070 ft | 339 kts | 346° |
| 2026-05-04 12:50 | -1.58895 | 100.48945 | 14719 ft | 337 kts | 346° |
| 2026-05-04 12:50 | -1.56629 | 100.48347 | 14354 ft | 336 kts | 346° |
| 2026-05-04 12:50 | -1.54372 | 100.47753 | 14001 ft | 335 kts | 346° |
| 2026-05-04 12:51 | -1.52123 | 100.47160 | 13637 ft | 334 kts | 346° |
| 2026-05-04 12:51 | -1.49887 | 100.46570 | 13247 ft | 332 kts | 346° |
| 2026-05-04 12:51 | -1.47654 | 100.45982 | 12880 ft | 330 kts | 346° |
| 2026-05-04 12:51 | -1.45442 | 100.45399 | 12524 ft | 328 kts | 345° |
| 2026-05-04 12:52 | -1.43243 | 100.44819 | 12171 ft | 325 kts | 345° |
| 2026-05-04 12:52 | -1.41059 | 100.44244 | 11828 ft | 323 kts | 345° |
| 2026-05-04 12:52 | -1.38892 | 100.43672 | 11486 ft | 321 kts | 345° |
| 2026-05-04 12:52 | -1.36736 | 100.43104 | 11146 ft | 319 kts | 345° |
| 2026-05-04 12:53 | -1.34619 | 100.42546 | 10809 ft | 318 kts | 345° |
| 2026-05-04 12:53 | -1.32489 | 100.41984 | 10470 ft | 316 kts | 345° |
| 2026-05-04 12:53 | -1.30387 | 100.41430 | 10279 ft | 305 kts | 345° |
| 2026-05-04 12:53 | -1.28386 | 100.40903 | 10144 ft | 289 kts | 345° |
| 2026-05-04 12:54 | -1.26488 | 100.40403 | 10030 ft | 275 kts | 345° |
| 2026-05-04 12:54 | -1.25277 | 100.40084 | 9887 ft | 268 kts | 344° |
| 2026-05-04 12:54 | -1.23495 | 100.39614 | 9632 ft | 262 kts | 344° |
| 2026-05-04 12:54 | -1.21735 | 100.39150 | 9368 ft | 261 kts | 344° |
| 2026-05-04 12:55 | -1.19418 | 100.38455 | 9010 ft | 267 kts | 331° |
| 2026-05-04 12:55 | -1.18396 | 100.37708 | 8848 ft | 273 kts | 314° |
| 2026-05-04 12:55 | -1.17069 | 100.36324 | 8591 ft | 279 kts | 312° |
| 2026-05-04 12:55 | -1.15745 | 100.34905 | 8308 ft | 279 kts | 312° |
| 2026-05-04 12:56 | -1.14420 | 100.33487 | 8027 ft | 278 kts | 312° |
| 2026-05-04 12:56 | -1.13103 | 100.32084 | 7746 ft | 276 kts | 312° |
| 2026-05-04 12:56 | -1.11790 | 100.30689 | 7477 ft | 275 kts | 312° |
| 2026-05-04 12:56 | -1.10481 | 100.29303 | 7192 ft | 274 kts | 312° |
| 2026-05-04 12:57 | -1.09171 | 100.27916 | 6892 ft | 275 kts | 312° |
| 2026-05-04 12:57 | -1.07858 | 100.26528 | 6562 ft | 274 kts | 312° |
| 2026-05-04 12:57 | -1.06563 | 100.25161 | 6273 ft | 268 kts | 312° |
| 2026-05-04 12:57 | -1.05293 | 100.23819 | 5979 ft | 262 kts | 312° |
| 2026-05-04 12:58 | -1.04061 | 100.22519 | 5711 ft | 260 kts | 312° |
| 2026-05-04 12:58 | -1.02817 | 100.21214 | 5434 ft | 258 kts | 315° |
| 2026-05-04 12:58 | -1.01276 | 100.20401 | 5384 ft | 251 kts | 352° |
| 2026-05-04 12:58 | -0.99535 | 100.20680 | 5409 ft | 266 kts | 28° |
| 2026-05-04 12:59 | -0.98219 | 100.21989 | 5324 ft | 276 kts | 63° |
| 2026-05-04 12:59 | -0.97886 | 100.23838 | 5164 ft | 271 kts | 101° |
| 2026-05-04 12:59 | -0.98670 | 100.25515 | 4901 ft | 270 kts | 136° |
| 2026-05-04 12:59 | -1.00061 | 100.26766 | 4672 ft | 269 kts | 133° |
| 2026-05-04 13:00 | -1.00886 | 100.28399 | 4392 ft | 263 kts | 97° |
| 2026-05-04 13:00 | -1.00775 | 100.30152 | 4215 ft | 246 kts | 76° |
| 2026-05-04 13:00 | -1.00304 | 100.31750 | 3968 ft | 233 kts | 72° |
| 2026-05-04 13:00 | -0.99828 | 100.33253 | 3745 ft | 221 kts | 72° |
| 2026-05-04 13:01 | -0.99305 | 100.34659 | 3560 ft | 212 kts | 60° |
| 2026-05-04 13:01 | -0.98260 | 100.35594 | 3334 ft | 201 kts | 15° |
| 2026-05-04 13:01 | -0.96905 | 100.35614 | 3193 ft | 193 kts | 349° |
| 2026-05-04 13:01 | -0.95591 | 100.35408 | 2974 ft | 189 kts | 348° |
| 2026-05-04 13:02 | -0.94340 | 100.35083 | 2771 ft | 183 kts | 341° |
| 2026-05-04 13:02 | -0.93143 | 100.34695 | 2618 ft | 178 kts | 340° |
| 2026-05-04 13:02 | -0.92007 | 100.34248 | 2503 ft | 176 kts | 336° |
| 2026-05-04 13:02 | -0.90924 | 100.33763 | 2314 ft | 166 kts | 335° |
| 2026-05-04 13:03 | -0.89900 | 100.33290 | 2122 ft | 159 kts | 335° |
| 2026-05-04 13:03 | -0.88904 | 100.32827 | 1967 ft | 156 kts | 335° |
| 2026-05-04 13:03 | -0.87909 | 100.32364 | 1765 ft | 160 kts | 336° |
| 2026-05-04 13:03 | -0.86919 | 100.31905 | 1559 ft | 159 kts | 336° |
| 2026-05-04 13:04 | -0.85923 | 100.31441 | 1354 ft | 158 kts | 335° |
| 2026-05-04 13:04 | -0.84924 | 100.30976 | 1118 ft | 157 kts | 336° |
| 2026-05-04 13:04 | -0.83933 | 100.30516 | 888 ft | 157 kts | 335° |
| 2026-05-04 13:04 | -0.82946 | 100.30057 | 684 ft | 157 kts | 336° |
| 2026-05-04 13:05 | -0.81960 | 100.29599 | 498 ft | 155 kts | 336° |
| 2026-05-04 13:05 | -0.80984 | 100.29145 | 303 ft | 155 kts | 336° |
| 2026-05-04 13:05 | -0.80010 | 100.28699 | 145 ft | 155 kts | 335° |
| 2026-05-04 13:05 | -0.79043 | 100.28241 | 33 ft | 150 kts | 334° |
| 2026-05-04 13:06 | -0.78272 | 100.27885 | 22 ft | 92 kts | 334° |
| 2026-05-04 13:06 | -0.77889 | 100.27704 | 27 ft | 32 kts | 331° |
| 2026-05-04 13:06 | -0.77839 | 100.27673 | 26 ft | 0 kts | 333° |